Time;durP1;ratioP1;P1;durP2;ratioP2;P2;SDS_P1;SDS_P2;PMS_P1;PMS_P2;Temp;Humidity;BMP_temperature;BMP_pressure;BME280_temperature;BME280_humidity;BME280_pressure;Samples;Min_cycle;Max_cycle;Signal;HPM_P1;HPM_P2
2022/12/25 00:02:06;;;;;;;6.97;3.00;;;;;;;14.66;48.36;99744.16;10434531;28;20232;-36
2022/12/25 00:07:08;;;;;;;3.40;2.53;;;;;;;15.00;47.01;99734.97;10437353;28;20630;-36
2022/12/25 00:12:10;;;;;;;3.10;2.80;;;;;;;13.62;49.48;99814.59;10440975;28;20725;-36
2022/12/25 00:17:12;;;;;;;4.80;2.70;;;;;;;14.61;47.88;99720.59;10441736;28;20247;-35
2022/12/25 00:22:13;;;;;;;6.00;2.90;;;;;;;15.12;46.99;99727.84;10443286;28;20231;-36
2022/12/25 00:27:16;;;;;;;5.07;2.83;;;;;;;15.93;45.54;99708.41;10410100;28;20649;-36
2022/12/25 00:32:17;;;;;;;4.17;3.10;;;;;;;15.37;46.20;99701.97;10425321;28;20229;-35
2022/12/25 00:37:19;;;;;;;7.27;3.40;;;;;;;16.03;45.34;99711.44;10427012;28;20263;-36
2022/12/25 00:42:22;;;;;;;4.77;3.10;;;;;;;15.60;46.16;99745.38;10436627;28;20235;-35
2022/12/25 00:47:24;;;;;;;4.40;3.47;;;;;;;15.91;45.65;99729.38;10423978;28;20643;-34
2022/12/25 00:52:26;;;;;;;4.03;3.40;;;;;;;14.64;46.85;99741.69;10422598;28;20244;-35
2022/12/25 00:57:27;;;;;;;5.27;3.23;;;;;;;15.10;46.55;99727.22;10425806;28;20231;-35
2022/12/25 01:02:29;;;;;;;6.40;3.20;;;;;;;15.96;45.17;99711.47;10422502;28;20718;-35
2022/12/25 01:07:31;;;;;;;4.73;3.00;;;;;;;15.59;45.67;99726.72;10413115;28;20236;-35
2022/12/25 01:12:36;;;;;;;5.43;3.17;;;;;;;16.83;43.28;99688.91;10421652;28;20228;-35
2022/12/25 01:17:38;;;;;;;5.13;3.30;;;;;;;17.46;42.86;99695.75;10422845;28;20240;-35
2022/12/25 01:22:40;;;;;;;4.80;3.60;;;;;;;16.99;43.58;99682.91;10422142;28;20239;-35
2022/12/25 01:27:42;;;;;;;6.17;3.33;;;;;;;16.98;43.43;99724.50;10425036;28;20238;-35
2022/12/25 01:32:44;;;;;;;6.13;3.80;;;;;;;14.27;48.30;99807.84;10425765;28;20227;-35
2022/12/25 01:37:46;;;;;;;6.13;3.70;;;;;;;15.68;46.06;99718.13;10416964;28;20232;-35
2022/12/25 01:42:47;;;;;;;4.63;3.63;;;;;;;13.55;49.59;99775.28;10421736;28;20755;-34
2022/12/25 01:47:49;;;;;;;3.63;3.33;;;;;;;13.50;50.14;99796.56;10423637;28;20863;-35
2022/12/25 01:52:52;;;;;;;6.07;3.50;;;;;;;13.73;49.62;99755.88;10423808;28;20318;-35
2022/12/25 01:57:55;;;;;;;4.80;3.17;;;;;;;15.48;46.47;99645.47;10420546;28;20228;-35
2022/12/25 02:02:57;;;;;;;5.00;3.10;;;;;;;16.69;44.25;99653.16;10423231;28;20228;-35
2022/12/25 02:08:11;;;;;;;5.23;2.77;;;;;;;16.57;43.79;99639.59;10423715;28;20231;-35
2022/12/25 02:13:17;;;;;;;6.90;3.23;;;;;;;15.45;45.42;99740.28;10419290;28;20259;-35
2022/12/25 02:18:49;;;;;;;5.50;3.10;;;;;;;14.42;46.93;99749.22;10419615;28;20242;-35
2022/12/25 02:24:05;;;;;;;7.10;3.30;;;;;;;15.45;45.92;99685.53;10420133;28;20726;-35
2022/12/25 02:29:59;;;;;;;5.83;3.33;;;;;;;13.33;49.36;99750.44;10425768;28;20235;-35
2022/12/25 02:35:27;;;;;;;5.53;3.77;;;;;;;13.54;49.51;99752.13;10385930;28;20323;-35
2022/12/25 02:40:56;;;;;;;7.60;3.70;;;;;;;15.02;46.66;99662.00;10411823;28;20232;-35
2022/12/25 03:07:33;;;;;;;8.10;3.40;;;;;;;16.21;44.35;99632.31;10423172;28;20235;-35
2022/12/25 03:12:50;;;;;;;6.27;2.87;;;;;;;16.78;43.34;99635.56;10434946;28;20243;-35
2022/12/25 03:17:54;;;;;;;9.70;3.90;;;;;;;15.52;45.17;99689.84;10413018;28;20234;-35
2022/12/25 03:28:16;;;;;;;4.73;3.13;;;;;;;15.93;45.40;99655.25;10439854;28;20242;-35
2022/12/25 03:35:21;;;;;;;5.23;3.33;;;;;;;16.41;44.08;99621.31;10436130;28;20239;-35
2022/12/25 04:39:00;;;;;;;5.20;3.83;;;;;;;15.96;44.79;99597.31;10444961;28;20243;-35
2022/12/25 04:44:02;;;;;;;5.90;4.47;;;;;;;16.10;44.61;99604.22;10441148;28;20305;-35
2022/12/25 04:49:03;;;;;;;9.03;4.40;;;;;;;17.03;42.97;99547.31;10445561;28;20243;-35
2022/12/25 04:54:05;;;;;;;5.67;3.60;;;;;;;15.87;44.78;99629.16;10443108;28;20232;-35
2022/12/25 04:59:07;;;;;;;6.07;3.50;;;;;;;15.31;46.01;99633.56;10444160;28;20230;-35
2022/12/25 05:04:09;;;;;;;5.73;3.80;;;;;;;15.25;45.91;99612.88;10425597;28;20255;-35
2022/12/25 05:09:10;;;;;;;7.50;3.70;;;;;;;14.92;46.44;99603.19;10448323;28;20232;-35
2022/12/25 05:14:12;;;;;;;8.10;3.87;;;;;;;14.44;47.51;99609.81;10442165;28;20235;-35
2022/12/25 05:19:14;;;;;;;5.43;4.00;;;;;;;14.17;47.89;99615.34;10429222;28;20228;-35
2022/12/25 05:24:16;;;;;;;6.97;4.30;;;;;;;14.56;47.08;99597.38;10421939;28;20247;-35
2022/12/25 05:29:17;;;;;;;7.03;4.43;;;;;;;14.36;47.83;99577.81;10405808;28;20854;-35
2022/12/25 05:34:19;;;;;;;7.23;4.20;;;;;;;14.20;47.62;99579.91;10425753;28;20285;-35
2022/12/25 05:39:21;;;;;;;4.83;4.10;;;;;;;14.21;47.69;99567.31;10425995;28;20238;-36
2022/12/25 05:44:23;;;;;;;6.60;4.30;;;;;;;14.33;47.28;99562.06;10422688;28;20240;-35
2022/12/25 05:49:24;;;;;;;7.03;4.63;;;;;;;14.63;47.95;99529.16;10422971;28;20311;-34
2022/12/25 05:54:26;;;;;;;9.70;4.50;;;;;;;15.08;46.22;99523.66;10422893;28;20235;-35
2022/12/25 05:59:30;;;;;;;9.97;4.47;;;;;;;15.56;45.65;99495.25;10425693;28;21014;-35
2022/12/25 06:04:32;;;;;;;9.23;4.20;;;;;;;15.49;45.78;99489.91;10425431;28;20232;-35
2022/12/25 06:09:33;;;;;;;6.37;3.83;;;;;;;16.35;43.83;99446.72;10423663;28;20308;-35
2022/12/25 06:14:35;;;;;;;6.30;4.23;;;;;;;16.77;43.41;99474.50;10427548;28;20224;-35
2022/12/25 06:19:37;;;;;;;7.57;4.17;;;;;;;15.36;45.33;99534.00;10423430;28;20357;-35
2022/12/25 06:24:39;;;;;;;6.67;3.90;;;;;;;15.28;45.66;99520.81;10421431;28;20228;-35
2022/12/25 06:29:41;;;;;;;6.37;4.27;;;;;;;13.89;48.54;99559.13;10417059;28;20331;-35
2022/12/25 06:34:43;;;;;;;6.73;4.37;;;;;;;14.86;46.39;99577.09;10424698;28;20239;-35
2022/12/25 06:39:46;;;;;;;8.20;4.40;;;;;;;15.89;44.71;99500.25;10429729;28;20248;-35
2022/12/25 06:44:49;;;;;;;7.40;4.40;;;;;;;16.01;44.05;99547.03;10438765;28;20234;-36
2022/12/25 06:49:51;;;;;;;9.80;5.10;;;;;;;16.47;43.71;99520.47;10445566;28;20592;-35
2022/12/25 06:54:53;;;;;;;10.13;4.20;;;;;;;14.99;46.06;99613.91;10436782;28;20232;-36
2022/12/25 06:59:54;;;;;;;8.27;4.10;;;;;;;15.21;45.07;99580.16;10443409;28;20235;-35
2022/12/25 07:04:57;;;;;;;7.23;4.47;;;;;;;14.70;46.91;99597.28;10430467;28;20254;-36
2022/12/25 07:09:59;;;;;;;8.50;4.07;;;;;;;16.25;44.62;99491.25;10441393;28;20239;-36
2022/12/25 07:15:00;;;;;;;8.93;4.47;;;;;;;15.73;44.96;99552.13;10429233;28;20234;-35
2022/12/25 07:20:02;;;;;;;8.43;4.93;;;;;;;15.67;45.20;99538.50;10436463;28;20234;-36
2022/12/25 07:25:05;;;;;;;7.57;4.50;;;;;;;14.58;46.18;99552.19;10444502;28;20241;-36
2022/12/25 07:30:07;;;;;;;6.03;3.93;;;;;;;14.98;46.02;99547.59;10427188;28;20236;-36
2022/12/25 07:35:09;;;;;;;8.10;4.10;;;;;;;14.05;47.66;99555.13;10438212;28;20236;-36
2022/12/25 07:40:11;;;;;;;7.93;4.10;;;;;;;13.36;49.10;99541.25;10445800;28;20329;-36
2022/12/25 07:45:13;;;;;;;6.77;4.60;;;;;;;13.67;48.70;99569.31;10432085;28;20224;-36
2022/12/25 07:50:15;;;;;;;8.03;4.57;;;;;;;15.01;46.06;99537.19;10424815;28;20268;-36
2022/12/25 07:55:17;;;;;;;9.10;4.40;;;;;;;15.27;45.48;99549.63;10426144;28;20225;-35
2022/12/25 08:00:19;;;;;;;11.93;5.10;;;;;;;15.27;45.43;99562.28;10427245;28;20618;-36
2022/12/25 08:05:21;;;;;;;6.80;4.03;;;;;;;17.08;42.81;99494.19;10417325;28;20234;-36
2022/12/25 08:10:23;;;;;;;8.43;4.40;;;;;;;16.72;43.33;99514.06;10431474;28;20240;-36
2022/12/25 08:15:24;;;;;;;4.90;4.00;;;;;;;17.18;42.22;99499.81;10435313;28;20231;-36
2022/12/25 08:20:26;;;;;;;5.70;4.10;;;;;;;16.41;44.10;99492.50;10433838;28;20608;-36
2022/12/25 08:25:28;;;;;;;5.77;3.97;;;;;;;16.68;43.68;99512.91;10429428;28;20244;-36
2022/12/25 08:30:30;;;;;;;6.40;4.00;;;;;;;15.05;45.97;99557.28;10428315;28;20812;-36
2022/12/25 08:35:32;;;;;;;6.07;3.20;;;;;;;14.42;47.62;99530.34;10430930;28;20266;-36
2022/12/25 08:40:34;;;;;;;6.73;4.30;;;;;;;16.13;44.71;99419.38;10430569;28;20407;-38
2022/12/25 08:45:36;;;;;;;6.97;4.87;;;;;;;17.30;43.80;99413.28;10432766;28;20231;-36
2022/12/25 08:50:38;;;;;;;6.67;4.50;;;;;;;17.73;42.80;99432.84;10451964;28;20234;-35
2022/12/25 08:55:40;;;;;;;5.77;3.90;;;;;;;17.73;43.03;99432.84;10443097;28;20244;-36
2022/12/25 09:00:41;;;;;;;13.30;8.17;;;;;;;16.57;43.45;99534.25;10444116;28;20314;-36
2022/12/25 09:05:43;;;;;;;12.47;8.23;;;;;;;17.63;42.54;99460.53;10425691;28;20315;-35
2022/12/25 09:10:45;;;;;;;6.50;4.30;;;;;;;14.55;47.55;99581.41;10443911;28;20728;-36
2022/12/25 09:15:47;;;;;;;6.73;4.67;;;;;;;15.35;46.67;99580.84;10436225;28;20239;-35
2022/12/25 09:21:03;;;;;;;9.23;7.03;;;;;;;17.76;43.38;99464.00;10440970;28;20246;-35
2022/12/25 09:26:07;;;;;;;7.57;5.23;;;;;;;17.53;43.54;99461.09;10430306;28;20322;-36
2022/12/25 09:31:09;;;;;;;7.43;5.40;;;;;;;17.84;42.47;99437.38;10428497;28;20242;-36
2022/12/25 09:36:11;;;;;;;7.33;5.00;;;;;;;18.83;41.28;99452.41;10431596;28;20703;-36
2022/12/25 09:41:37;;;;;;;6.40;4.10;;;;;;;17.43;44.16;99495.25;10425311;28;20252;-37
2022/12/25 09:46:51;;;;;;;5.07;4.07;;;;;;;17.34;44.29;99479.38;10417721;28;20236;-35
2022/12/25 09:52:00;;;;;;;13.50;7.53;;;;;;;16.35;45.92;99493.44;10423963;28;20637;-35
2022/12/25 09:57:02;;;;;;;8.27;5.13;;;;;;;16.20;46.53;99477.63;10407304;28;20239;-35
2022/12/25 10:02:19;;;;;;;4.97;3.57;;;;;;;17.99;43.57;99363.78;10425281;28;20251;-35
2022/12/25 10:07:50;;;;;;;4.67;4.10;;;;;;;16.49;45.49;99463.53;10439474;28;20721;-36
2022/12/25 10:13:04;;;;;;;4.70;4.00;;;;;;;15.55;46.98;99493.59;10433025;28;20240;-35
2022/12/25 10:18:24;;;;;;;5.73;3.80;;;;;;;15.95;46.68;99426.50;10416825;28;20238;-36
2022/12/25 10:23:34;;;;;;;4.33;3.50;;;;;;;16.59;45.93;99370.06;10434647;28;20233;-36
2022/12/25 10:28:50;;;;;;;4.53;3.40;;;;;;;15.96;46.93;99425.44;10432623;28;20247;-36
2022/12/25 10:33:53;;;;;;;4.83;3.60;;;;;;;17.44;44.60;99359.75;10425068;28;20622;-36
2022/12/25 10:38:55;;;;;;;4.63;3.00;;;;;;;16.49;46.28;99353.63;10425217;28;20235;-36
2022/12/25 10:43:57;;;;;;;3.87;3.47;;;;;;;16.58;45.54;99384.66;10423723;28;20580;-36
2022/12/25 10:49:01;;;;;;;5.80;3.50;;;;;;;15.77;47.09;99434.63;10420426;28;20238;-36
2022/12/25 10:54:25;;;;;;;8.07;3.53;;;;;;;16.31;46.54;99378.84;10427206;28;20994;-36
2022/12/25 10:59:29;;;;;;;4.87;3.23;;;;;;;16.01;47.47;99352.72;10424003;28;20249;-36
2022/12/25 11:06:23;;;;;;;7.90;5.20;;;;;;;11.28;57.67;99404.13;10544912;27;20662;-70
2022/12/25 11:11:26;;;;;;;3.80;3.27;;;;;;;11.36;56.61;99415.50;10458592;28;20799;-67
2022/12/25 11:16:38;;;;;;;6.17;4.57;;;;;;;11.17;57.24;99403.66;10479395;28;20283;-76
2022/12/25 11:21:50;;;;;;;5.57;3.50;;;;;;;11.80;56.49;99333.03;10507981;28;20223;-68
2022/12/25 11:27:03;;;;;;;9.37;5.43;;;;;;;11.72;56.09;99371.53;10512198;28;20238;-75
2022/12/25 11:32:19;;;;;;;10.33;5.60;;;;;;;11.76;56.44;99348.69;10505162;28;20230;-70
2022/12/25 11:37:43;;;;;;;7.53;3.87;;;;;;;11.28;56.74;99388.88;10482971;28;20610;-69
2022/12/25 11:42:50;;;;;;;5.27;3.27;;;;;;;12.42;54.97;99295.25;10500065;28;20234;-69
2022/12/25 11:48:01;;;;;;;4.27;3.60;;;;;;;12.55;54.51;99331.00;10478953;28;20236;-68
2022/12/25 11:53:23;;;;;;;4.20;3.03;;;;;;;12.87;54.18;99316.88;10496287;28;20238;-68
2022/12/25 11:58:31;;;;;;;5.20;3.97;;;;;;;13.30;53.52;99305.59;10468517;28;20232;-73
2022/12/25 12:03:40;;;;;;;6.07;3.30;;;;;;;13.27;53.22;99287.19;10501350;28;20227;-71
2022/12/25 12:08:42;;;;;;;4.03;3.60;;;;;;;12.76;53.91;99336.34;10506512;28;20253;-71
2022/12/25 12:14:17;;;;;;;5.20;3.93;;;;;;;14.62;51.23;99306.72;10500806;28;20299;-71
2022/12/25 12:19:28;;;;;;;4.43;3.80;;;;;;;13.14;53.33;99392.84;10434637;28;20247;-72
2022/12/25 12:24:38;;;;;;;6.27;4.83;;;;;;;14.42;51.37;99328.47;10474909;28;20277;-71
2022/12/25 12:29:43;;;;;;;6.73;4.80;;;;;;;14.53;50.70;99355.47;10430923;28;20235;-74
2022/12/25 12:34:49;;;;;;;6.57;4.67;;;;;;;14.95;50.00;99317.19;10446161;28;20832;-80
2022/12/25 12:39:53;;;;;;;5.50;4.33;;;;;;;14.27;52.06;99334.97;10473201;28;20228;-74
2022/12/25 12:44:57;;;;;;;5.47;4.20;;;;;;;14.52;51.33;99328.78;10418341;28;20239;-70
2022/12/25 12:50:00;;;;;;;5.00;3.97;;;;;;;14.38;51.52;99312.75;10426656;28;20238;-76
2022/12/25 12:55:06;;;;;;;4.53;3.70;;;;;;;14.75;50.90;99298.50;10420782;28;20255;-73
2022/12/25 13:00:17;;;;;;;3.93;3.50;;;;;;;14.32;51.93;99359.38;10426481;28;20239;-73
2022/12/25 13:05:25;;;;;;;4.13;3.13;;;;;;;14.00;52.13;99372.00;10436898;28;20254;-74
2022/12/25 13:10:40;;;;;;;4.20;3.40;;;;;;;14.08;52.41;99376.34;10463730;28;20235;-74
2022/12/25 13:15:46;;;;;;;5.20;3.93;;;;;;;14.46;52.23;99345.81;10427676;28;20246;-73
2022/12/25 13:20:55;;;;;;;5.27;4.77;;;;;;;14.46;51.83;99316.19;10422251;28;20237;-72
2022/12/25 13:25:59;;;;;;;8.10;5.30;;;;;;;14.09;53.17;99362.69;10421803;28;20232;-71
2022/12/25 13:31:04;;;;;;;5.83;4.27;;;;;;;14.70;51.53;99319.91;10430954;28;20322;-72
2022/12/25 13:36:11;;;;;;;4.83;3.97;;;;;;;14.47;51.64;99315.16;10442574;28;20228;-76
2022/12/25 13:46:42;;;;;;;5.13;3.90;;;;;;;14.58;51.45;99299.09;10474681;28;20235;-74
2022/12/25 13:51:44;;;;;;;5.30;3.60;;;;;;;12.39;55.50;99336.75;10472215;28;20237;-74
2022/12/25 13:56:55;;;;;;;6.23;4.20;;;;;;;13.97;53.56;99332.09;10478664;28;20231;-71
2022/12/25 14:01:58;;;;;;;6.90;4.77;;;;;;;13.27;54.25;99347.13;10478304;28;20309;-72
2022/12/25 14:07:09;;;;;;;11.33;6.10;;;;;;;13.22;54.02;99367.63;10439135;28;20229;-73
2022/12/25 14:12:11;;;;;;;8.23;4.67;;;;;;;12.97;55.03;99354.88;10451129;28;20914;-73
2022/12/25 14:17:21;;;;;;;9.20;5.57;;;;;;;13.70;53.61;99326.91;10435985;28;20794;-76
2022/12/25 14:22:24;;;;;;;6.53;5.03;;;;;;;14.67;51.75;99317.66;10448876;28;20604;-74
2022/12/25 14:27:29;;;;;;;5.70;4.87;;;;;;;14.56;51.43;99324.56;10439589;28;20239;-72
2022/12/25 14:32:39;;;;;;;6.30;4.10;;;;;;;16.01;48.25;99306.00;10416589;28;20223;-74
2022/12/25 14:37:41;;;;;;;3.73;3.23;;;;;;;16.16;47.73;99282.09;10459291;28;20235;-73
2022/12/25 14:42:53;;;;;;;4.40;3.80;;;;;;;15.35;49.09;99334.72;10431913;28;20229;-73
2022/12/25 14:47:58;;;;;;;5.93;4.17;;;;;;;16.43;47.16;99312.19;10416810;28;20741;-71
2022/12/25 14:53:00;;;;;;;4.87;3.67;;;;;;;15.63;48.77;99366.53;10411560;28;20319;-75
2022/12/25 14:58:04;;;;;;;5.73;4.07;;;;;;;15.88;47.78;99342.13;10429836;28;20276;-73
2022/12/25 15:03:19;;;;;;;9.57;7.27;;;;;;;15.93;47.65;99331.47;10438862;28;20228;-75
2022/12/25 15:08:23;;;;;;;4.47;3.87;;;;;;;15.80;48.49;99348.66;10434746;28;20223;-72
2022/12/25 15:13:26;;;;;;;6.00;3.90;;;;;;;16.86;46.68;99333.66;10433091;28;20228;-68
2022/12/25 15:18:37;;;;;;;4.70;4.10;;;;;;;16.59;46.62;99344.94;10434233;28;20250;-67
2022/12/25 15:23:38;;;;;;;14.33;11.33;;;;;;;16.19;47.96;99365.28;10433654;28;20247;-69
2022/12/25 15:28:40;;;;;;;6.57;4.60;;;;;;;15.79;47.74;99340.78;10433966;28;20235;-68
2022/12/25 15:33:42;;;;;;;5.17;4.27;;;;;;;16.00;48.22;99371.84;10433201;28;20232;-68
2022/12/25 15:38:44;;;;;;;5.63;4.90;;;;;;;15.63;48.54;99393.53;10434321;28;20232;-68
2022/12/25 15:43:46;;;;;;;9.13;6.23;;;;;;;14.97;49.63;99398.59;10437070;28;20708;-68
2022/12/25 15:48:48;;;;;;;10.00;5.77;;;;;;;14.89;49.42;99398.88;10437075;28;20621;-68
2022/12/25 15:53:49;;;;;;;7.13;5.70;;;;;;;15.39;49.32;99371.00;10440731;28;20369;-68
2022/12/25 15:58:51;;;;;;;8.97;5.60;;;;;;;16.38;47.67;99355.28;10441228;28;20244;-68
2022/12/25 16:03:53;;;;;;;6.07;5.13;;;;;;;15.62;48.42;99365.72;10441545;28;20246;-67
2022/12/25 16:08:54;;;;;;;8.60;5.50;;;;;;;16.02;47.89;99358.94;10441389;28;20236;-67
2022/12/25 16:13:56;;;;;;;7.63;5.80;;;;;;;16.16;47.86;99363.09;10444302;28;20266;-67
2022/12/25 16:18:58;;;;;;;8.20;6.20;;;;;;;16.19;47.83;99362.59;10441282;28;20237;-67
2022/12/25 16:23:59;;;;;;;9.23;6.70;;;;;;;15.82;48.04;99362.72;10440878;28;20763;-67
2022/12/25 16:29:03;;;;;;;12.10;10.23;;;;;;;13.33;51.52;99353.56;10441005;28;20235;-67
2022/12/25 16:34:08;;;;;;;11.93;8.60;;;;;;;13.17;53.45;99408.53;10441270;28;20247;-67
2022/12/25 16:39:10;;;;;;;14.53;9.40;;;;;;;12.95;54.16;99421.41;10441256;28;20591;-67
2022/12/25 16:44:13;;;;;;;8.17;5.83;;;;;;;14.66;50.70;99316.84;10442889;28;20239;-67
2022/12/25 16:49:15;;;;;;;8.80;6.77;;;;;;;14.74;50.33;99354.22;10440973;28;20236;-68
2022/12/25 16:54:16;;;;;;;9.30;5.83;;;;;;;14.59;50.09;99372.59;10440692;28;20228;-68
2022/12/25 16:59:18;;;;;;;10.63;6.27;;;;;;;14.27;51.04;99399.56;10442091;28;20232;-68
2022/12/25 17:04:20;;;;;;;7.40;6.20;;;;;;;14.02;51.89;99394.97;10482242;28;20590;-68
2022/12/25 17:09:22;;;;;;;5.80;5.20;;;;;;;13.37;52.96;99442.63;10426334;28;20232;-68
2022/12/25 17:14:24;;;;;;;6.93;6.23;;;;;;;12.06;54.98;99473.53;10421748;28;20274;-68
2022/12/25 17:19:26;;;;;;;9.87;7.93;;;;;;;12.21;55.00;99476.06;10424202;28;20232;-68
2022/12/25 17:24:28;;;;;;;9.20;7.37;;;;;;;12.31;54.38;99468.44;10478771;28;20226;-68
2022/12/25 17:29:30;;;;;;;8.57;7.70;;;;;;;14.24;50.71;99359.66;10434354;28;20274;-68
2022/12/25 17:34:32;;;;;;;7.87;6.47;;;;;;;13.23;53.12;99421.13;10473612;28;20234;-68
2022/12/25 17:39:34;;;;;;;8.77;7.30;;;;;;;12.46;53.63;99468.25;10428207;28;20240;-69
2022/12/25 17:44:35;;;;;;;7.60;6.80;;;;;;;13.35;52.98;99428.59;10473774;28;20246;-68
2022/12/25 17:49:37;;;;;;;8.97;6.80;;;;;;;12.53;54.36;99480.66;10440033;28;20235;-69
2022/12/25 17:54:39;;;;;;;9.10;7.00;;;;;;;12.90;53.14;99448.88;10435263;28;20235;-68
2022/12/25 17:59:41;;;;;;;11.33;7.63;;;;;;;14.23;51.22;99390.31;10483042;28;20319;-67
2022/12/25 18:04:43;;;;;;;8.20;6.43;;;;;;;13.16;52.50;99475.91;10482039;28;20238;-67
2022/12/25 18:09:44;;;;;;;8.67;6.53;;;;;;;13.71;52.06;99419.13;10480001;28;20254;-68
2022/12/25 18:14:46;;;;;;;8.50;6.80;;;;;;;14.19;50.75;99418.69;10486770;28;20238;-67
2022/12/25 18:19:49;;;;;;;12.43;9.23;;;;;;;12.88;53.09;99515.41;10480011;28;20238;-66
2022/12/25 18:24:51;;;;;;;9.17;7.57;;;;;;;13.41;52.40;99474.25;10485433;28;20234;-67
2022/12/25 18:29:53;;;;;;;12.50;9.73;;;;;;;13.20;52.27;99485.22;10483946;28;20236;-67
2022/12/25 18:34:54;;;;;;;10.50;9.30;;;;;;;13.71;51.30;99429.88;10481027;28;20230;-69
2022/12/25 18:39:56;;;;;;;8.97;7.97;;;;;;;12.46;53.32;99520.06;10481377;28;20716;-68
2022/12/25 18:44:58;;;;;;;10.50;7.83;;;;;;;13.00;52.47;99474.50;10475176;28;20243;-68
2022/12/25 18:50:00;;;;;;;11.37;8.00;;;;;;;13.71;50.79;99456.78;10485105;28;20227;-68
2022/12/25 18:55:01;;;;;;;10.67;8.50;;;;;;;14.04;50.20;99454.75;10481531;28;20231;-69
2022/12/25 19:00:03;;;;;;;20.37;15.57;;;;;;;12.94;51.47;99532.56;10477333;28;20744;-68
2022/12/25 19:05:05;;;;;;;9.07;7.80;;;;;;;13.10;51.54;99526.75;10480374;28;20238;-68
2022/12/25 19:10:09;;;;;;;8.33;6.70;;;;;;;13.28;51.15;99477.78;10480674;28;20240;-68
2022/12/25 19:15:11;;;;;;;8.30;6.07;;;;;;;12.93;51.49;99530.91;10482208;28;20231;-68
2022/12/25 19:20:12;;;;;;;6.23;5.57;;;;;;;13.79;49.58;99437.72;10484832;28;20334;-68
2022/12/25 19:25:14;;;;;;;7.57;5.40;;;;;;;13.90;49.93;99431.63;10484042;28;20850;-68
2022/12/25 19:30:17;;;;;;;7.53;6.20;;;;;;;12.86;51.29;99504.03;10491239;28;20238;-68
2022/12/25 19:35:18;;;;;;;7.30;5.67;;;;;;;12.64;50.81;99503.41;10478992;28;20232;-67
2022/12/25 19:40:21;;;;;;;8.00;5.23;;;;;;;13.00;50.57;99467.25;10445263;28;20236;-68
2022/12/25 19:45:23;;;;;;;6.07;4.53;;;;;;;12.27;51.72;99512.81;10441631;28;20380;-68
2022/12/25 19:50:27;;;;;;;4.93;4.10;;;;;;;12.00;51.70;99499.31;10443343;28;20232;-68
2022/12/25 19:55:30;;;;;;;5.20;3.63;;;;;;;12.67;51.07;99489.56;10445162;28;20325;-68
2022/12/25 20:00:32;;;;;;;7.17;4.63;;;;;;;13.04;50.32;99463.13;10444991;28;20856;-68
2022/12/25 20:05:34;;;;;;;3.87;3.30;;;;;;;12.18;51.62;99504.94;10447216;28;20310;-68
2022/12/25 20:10:41;;;;;;;4.57;3.60;;;;;;;12.82;51.08;99462.53;10457934;28;20239;-68
2022/12/25 20:15:43;;;;;;;4.40;3.10;;;;;;;12.32;51.71;99504.97;10444605;28;20795;-68
2022/12/25 20:20:45;;;;;;;5.93;4.27;;;;;;;13.22;49.58;99467.84;10440840;28;20238;-68
2022/12/25 20:25:46;;;;;;;5.97;3.93;;;;;;;12.90;49.52;99502.56;10454616;28;20634;-68
2022/12/25 20:30:48;;;;;;;4.63;3.07;;;;;;;13.08;49.93;99506.50;10485947;28;20227;-69
2022/12/25 20:35:50;;;;;;;3.50;3.20;;;;;;;12.82;50.05;99512.69;10486872;28;20232;-69
2022/12/25 20:41:21;;;;;;;4.23;3.23;;;;;;;13.29;49.54;99484.81;10487038;28;20313;-68
2022/12/25 20:46:29;;;;;;;4.83;3.43;;;;;;;12.95;49.78;99541.44;10458058;28;20331;-70
2022/12/25 20:51:31;;;;;;;5.80;3.50;;;;;;;13.48;49.55;99485.00;10442981;28;20242;-66
2022/12/25 20:56:33;;;;;;;7.13;3.40;;;;;;;14.08;48.44;99487.47;10439606;28;20242;-66
2022/12/25 21:01:35;;;;;;;5.80;3.57;;;;;;;14.34;47.79;99493.72;10440658;28;20236;-67
2022/12/25 21:06:36;;;;;;;6.57;4.33;;;;;;;14.40;47.20;99477.53;10437335;28;20286;-69
2022/12/25 21:11:38;;;;;;;6.50;4.60;;;;;;;12.76;49.61;99549.25;10436976;28;20266;-70
2022/12/25 21:16:40;;;;;;;4.27;3.57;;;;;;;13.56;48.79;99517.00;10437748;28;20626;-71
2022/12/25 21:21:42;;;;;;;4.63;4.10;;;;;;;13.22;49.34;99540.38;10433070;28;20301;-72
2022/12/25 21:26:44;;;;;;;5.93;4.57;;;;;;;13.36;49.15;99514.38;10440897;28;20802;-69
2022/12/25 21:37:09;;;;;;;5.07;3.77;;;;;;;13.83;48.78;99511.53;10438628;28;20231;-71
2022/12/25 21:42:10;;;;;;;5.30;4.00;;;;;;;14.10;48.19;99503.38;10440517;28;20228;-70
2022/12/25 21:47:12;;;;;;;5.80;4.33;;;;;;;14.08;48.16;99500.09;10440525;28;20670;-77
2022/12/25 21:52:14;;;;;;;5.90;4.00;;;;;;;13.23;49.18;99552.78;10436442;28;20258;-68
2022/12/25 21:57:15;;;;;;;7.37;4.10;;;;;;;13.94;48.05;99512.75;10438964;28;20240;-74
2022/12/25 22:02:17;;;;;;;5.33;4.27;;;;;;;13.55;48.73;99544.09;10439891;28;20235;-70
2022/12/25 22:07:19;;;;;;;6.63;4.40;;;;;;;13.70;48.69;99523.19;10432495;28;20488;-73
2022/12/25 22:23:03;;;;;;;5.33;4.43;;;;;;;13.78;48.55;99519.41;10436666;28;20263;-71
2022/12/25 22:28:04;;;;;;;6.07;4.53;;;;;;;14.01;48.26;99527.81;10437355;28;20236;-69
2022/12/25 22:33:06;;;;;;;4.13;3.53;;;;;;;13.15;49.58;99555.69;10436890;28;20230;-71
2022/12/25 22:38:08;;;;;;;5.07;3.67;;;;;;;13.62;49.02;99537.66;10436137;28;20236;-68
2022/12/25 22:43:09;;;;;;;7.50;3.50;;;;;;;13.42;49.00;99556.53;10436408;28;20232;-72
2022/12/25 22:48:11;;;;;;;4.60;3.60;;;;;;;13.46;48.95;99599.94;10435417;28;20236;-72
2022/12/25 22:53:12;;;;;;;5.63;4.00;;;;;;;13.52;48.03;99561.47;10437785;28;20235;-73
2022/12/25 22:58:14;;;;;;;4.00;3.70;;;;;;;13.42;48.97;99598.72;10434196;28;20235;-77
2022/12/25 23:03:16;;;;;;;5.17;3.77;;;;;;;12.69;49.62;99628.97;10435435;28;20239;-72
2022/12/25 23:08:18;;;;;;;5.50;4.43;;;;;;;12.83;50.07;99619.09;10435365;28;20328;-71
2022/12/25 23:29:36;;;;;;;5.07;4.30;;;;;;;13.70;48.87;99584.19;10468118;28;20243;-68
2022/12/25 23:34:40;;;;;;;6.57;4.57;;;;;;;13.15;49.78;99613.97;10426884;28;20301;-67
2022/12/25 23:39:42;;;;;;;6.97;4.80;;;;;;;13.74;48.19;99578.19;10476223;28;20285;-67
2022/12/25 23:44:44;;;;;;;6.80;4.93;;;;;;;13.15;49.68;99633.59;10466453;28;20236;-67
2022/12/25 23:49:45;;;;;;;5.10;4.23;;;;;;;13.23;49.56;99608.41;10421965;28;20276;-67
2022/12/25 23:54:47;;;;;;;5.80;4.50;;;;;;;14.11;47.99;99559.69;10423273;28;20231;-67
2022/12/25 23:59:49;;;;;;;5.03;4.07;;;;;;;13.20;50.01;99611.50;10419304;28;20251;-67
